createdAt,value
2019-02-19T04:54:20.740Z,70.40
2019-02-19T04:56:51.314Z,80.93
2019-02-19T04:59:21.732Z,73.43
2019-02-19T05:01:52.141Z,67.33
2019-02-19T05:04:23.175Z,66.40
2019-02-19T05:06:53.588Z,60.73
2019-02-19T05:09:23.992Z,61.83
2019-02-19T05:11:54.385Z,63.50
2019-02-19T05:14:24.783Z,64.27
2019-02-19T05:16:55.197Z,62.03
2019-02-19T05:19:25.670Z,56.83
2019-02-19T05:21:56.072Z,56.93
2019-02-19T05:24:28.198Z,49.97
2019-02-19T05:26:58.633Z,48.20
2019-02-19T05:29:32.270Z,47.50
2019-02-19T05:32:03.023Z,47.80
2019-02-19T05:34:33.486Z,47.10
2019-02-19T05:37:04.336Z,49.17
2019-02-19T05:39:34.897Z,50.03
2019-02-19T05:42:05.399Z,51.70
2019-02-19T05:44:35.821Z,54.03
2019-02-19T05:47:06.255Z,55.58
2019-02-19T05:49:36.695Z,57.07
2019-02-19T05:52:07.137Z,56.33
2019-02-19T05:54:37.639Z,62.63
2019-02-19T05:57:08.071Z,66.33
2019-02-19T05:59:38.498Z,61.23
2019-02-19T06:02:09.034Z,59.05
2019-02-19T06:04:39.562Z,54.50
2019-02-19T06:07:10.601Z,59.33
2019-02-19T06:09:40.999Z,72.50
2019-02-19T06:12:11.402Z,68.17
2019-02-19T06:14:42.144Z,63.30
2019-02-19T06:17:12.542Z,60.00
2019-02-19T06:19:42.944Z,58.50
2019-02-19T06:22:13.350Z,61.65
2019-02-19T06:24:43.755Z,60.90
2019-02-19T06:27:14.225Z,62.13
2019-02-19T06:29:44.631Z,60.48
2019-02-19T06:32:15.031Z,65.93
2019-02-19T06:34:45.510Z,62.88
2019-02-19T06:37:16.000Z,63.83
2019-02-19T06:39:46.408Z,69.47
2019-02-19T06:42:16.895Z,180.77
2019-02-19T06:44:47.304Z,118.90
2019-02-19T06:47:19.416Z,93.03
2019-02-19T06:49:49.899Z,96.25
2019-02-19T06:52:20.287Z,184.60
2019-02-19T06:54:50.794Z,121.72
2019-02-19T06:57:21.212Z,119.57
2019-02-19T06:59:52.728Z,137.15
2019-02-19T07:02:30.902Z,110.85
2019-02-19T07:05:01.920Z,123.65
2019-02-19T07:07:32.453Z,122.28
2019-02-19T07:10:02.922Z,107.78
2019-02-19T07:12:33.508Z,128.72
2019-02-19T07:15:04.555Z,116.67
2019-02-19T07:17:36.416Z,120.00
2019-02-19T07:20:09.195Z,98.15
2019-02-19T07:22:39.722Z,99.75
2019-02-19T07:25:12.220Z,97.82
2019-02-19T07:27:42.737Z,98.42
2019-02-19T07:30:13.322Z,92.47
2019-02-19T07:32:43.899Z,92.85
2019-02-19T07:35:14.293Z,89.92
2019-02-19T07:37:44.751Z,90.22
2019-02-19T07:40:15.159Z,66.70
2019-02-19T07:42:45.709Z,67.72
2019-02-19T07:45:16.143Z,50.63
2019-02-19T07:47:46.681Z,39.98
2019-02-19T07:50:17.827Z,34.95
2019-02-19T07:52:48.241Z,33.55
2019-02-19T07:55:18.671Z,30.12
2019-02-19T07:57:49.067Z,32.67
2019-02-19T08:00:19.469Z,32.33
2019-02-19T08:02:49.956Z,31.33
2019-02-19T08:05:20.485Z,31.45
2019-02-19T08:07:50.920Z,31.85
2019-02-19T08:10:21.448Z,30.77
2019-02-19T08:12:51.977Z,32.23
2019-02-19T08:15:22.367Z,34.05
2019-02-19T08:17:52.831Z,31.37
2019-02-19T08:20:23.226Z,28.62
2019-02-19T08:22:53.685Z,29.02
2019-02-19T08:25:24.116Z,28.70
2019-02-19T08:27:54.643Z,32.50
2019-02-19T08:30:25.058Z,27.77
2019-02-19T08:32:56.623Z,27.93
2019-02-19T08:35:27.058Z,25.15
2019-02-19T08:37:57.478Z,25.50
2019-02-19T08:40:27.911Z,26.95
2019-02-19T08:43:00.241Z,26.75
2019-02-19T08:45:35.895Z,27.40
2019-02-19T08:48:06.308Z,26.62
2019-02-19T08:50:36.698Z,27.15
2019-02-19T08:53:07.116Z,26.93
2019-02-19T08:55:37.573Z,26.48
2019-02-19T08:58:08.126Z,26.75
2019-02-19T09:00:38.650Z,27.75
2019-02-19T09:03:09.087Z,24.77
2019-02-19T09:05:39.520Z,24.25
2019-02-19T09:08:09.989Z,26.17
2019-02-19T09:10:40.786Z,26.35
2019-02-19T09:13:11.515Z,24.60
2019-02-19T09:15:41.923Z,24.18
2019-02-19T09:18:12.479Z,23.32
2019-02-19T09:20:42.942Z,24.20
2019-02-19T09:23:13.334Z,21.85
2019-02-19T09:25:43.767Z,22.82
2019-02-19T09:28:14.163Z,21.77
2019-02-19T09:30:44.672Z,22.32
2019-02-19T09:33:15.076Z,21.00
2019-02-19T09:35:45.581Z,21.90
2019-02-19T09:38:17.131Z,19.87
2019-02-19T09:40:47.596Z,21.15
2019-02-19T09:43:17.997Z,19.92
2019-02-19T09:45:48.525Z,20.90
2019-02-19T09:48:18.918Z,21.45
2019-02-19T09:50:49.314Z,19.65
2019-02-19T09:53:19.799Z,19.92
2019-02-19T09:55:50.209Z,20.23
2019-02-19T09:58:20.760Z,19.00
2019-02-19T10:00:51.192Z,20.30
2019-02-19T10:03:21.672Z,18.80
2019-02-19T10:05:52.144Z,18.07
2019-02-19T10:08:22.575Z,19.62
2019-02-19T10:10:53.008Z,19.87
2019-02-19T10:13:25.130Z,20.95
2019-02-19T10:15:55.642Z,20.25
2019-02-19T10:18:26.042Z,20.27
2019-02-19T10:20:56.577Z,21.00
2019-02-19T10:23:27.296Z,22.37
2019-02-19T10:25:57.733Z,66.42
2019-02-19T10:28:28.159Z,41.23
2019-02-19T10:31:53.473Z,58.63
2019-02-19T10:34:41.710Z,25.75
2019-02-19T10:37:12.109Z,22.82
2019-02-19T10:39:42.572Z,21.35
2019-02-19T10:42:13.994Z,58.08
2019-02-19T10:44:44.430Z,61.08
2019-02-19T10:47:14.842Z,53.30
2019-02-19T10:49:45.317Z,19.55
2019-02-19T10:52:15.706Z,19.27
2019-02-19T10:54:46.371Z,18.52
2019-02-19T10:57:16.782Z,17.40
2019-02-19T10:59:47.322Z,25.17
2019-02-19T11:02:17.755Z,30.30
2019-02-19T11:04:48.158Z,49.30
2019-02-19T11:07:18.636Z,20.23
2019-02-19T11:09:49.139Z,21.42
2019-02-19T11:12:19.539Z,16.07
2019-02-19T11:14:51.235Z,17.07
2019-02-19T11:17:21.763Z,14.07
2019-02-19T11:19:52.231Z,14.65
2019-02-19T11:22:22.645Z,21.97
2019-02-19T11:24:53.152Z,25.88
2019-02-19T11:27:23.582Z,16.37
2019-02-19T11:29:54.001Z,21.97
2019-02-19T11:32:26.285Z,14.28
2019-02-19T11:34:58.013Z,15.83
2019-02-19T11:37:28.417Z,24.65
2019-02-19T11:39:58.814Z,18.05
2019-02-19T11:42:29.210Z,22.27
2019-02-19T11:44:59.622Z,19.48
2019-02-19T11:47:30.049Z,15.05
2019-02-19T11:50:01.588Z,17.52
2019-02-19T11:52:31.989Z,14.90
2019-02-19T11:55:02.393Z,14.93
2019-02-19T11:57:32.936Z,14.55
2019-02-19T12:00:03.831Z,15.50
2019-02-19T12:02:34.310Z,16.40
2019-02-19T12:05:07.008Z,17.87
2019-02-19T12:07:37.598Z,18.65
2019-02-19T12:10:09.264Z,17.57
2019-02-19T12:12:39.886Z,19.85
2019-02-19T12:15:13.671Z,19.50
2019-02-19T12:17:44.067Z,20.77
2019-02-19T12:20:16.492Z,16.25
2019-02-19T12:22:46.927Z,17.55
2019-02-19T12:25:17.335Z,16.50
2019-02-19T12:27:47.864Z,17.52
2019-02-19T12:30:21.583Z,18.37
2019-02-19T12:32:52.104Z,18.27
2019-02-19T12:35:22.567Z,17.57
2019-02-19T12:37:52.975Z,16.57
2019-02-19T12:40:23.446Z,17.40
2019-02-19T12:42:54.022Z,19.52
2019-02-19T12:45:24.416Z,22.25
2019-02-19T12:47:54.816Z,19.55
2019-02-19T12:50:25.222Z,16.85
2019-02-19T12:52:55.736Z,17.05
2019-02-19T12:55:26.462Z,18.85
2019-02-19T12:57:57.123Z,16.73
2019-02-19T13:00:27.591Z,19.27
2019-02-19T13:02:58.060Z,18.50
2019-02-19T13:05:28.588Z,17.95
2019-02-19T13:07:59.116Z,17.30
2019-02-19T13:10:29.666Z,18.57
2019-02-19T13:13:00.297Z,16.87
2019-02-19T13:15:30.820Z,17.62
2019-02-19T13:18:01.237Z,17.80
2019-02-19T13:20:31.674Z,19.12
2019-02-19T13:23:02.415Z,18.90
2019-02-19T13:25:32.879Z,18.90
2019-02-19T13:28:04.492Z,18.25
2019-02-19T13:30:34.883Z,19.37
2019-02-19T13:33:05.288Z,49.55
2019-02-19T13:35:35.705Z,25.05
2019-02-19T13:38:06.128Z,27.10
2019-02-19T13:40:36.630Z,68.17
2019-02-19T13:43:07.046Z,37.15
2019-02-19T13:45:37.608Z,22.25
2019-02-19T13:48:08.013Z,24.47
2019-02-19T13:50:38.399Z,25.35
2019-02-19T13:53:19.420Z,83.33
2019-02-19T13:55:51.485Z,39.63
2019-02-19T13:58:22.017Z,23.65
2019-02-19T14:00:52.422Z,20.08
2019-02-19T14:03:22.897Z,23.02
2019-02-19T14:05:53.419Z,39.73
2019-02-19T14:08:23.846Z,24.75
2019-02-19T14:10:54.253Z,42.25
2019-02-19T14:13:24.810Z,58.00
2019-02-19T14:16:02.527Z,27.25
2019-02-19T14:18:50.045Z,44.35
2019-02-19T14:21:37.244Z,23.02
2019-02-19T14:24:27.624Z,21.25
2019-02-19T14:26:59.821Z,44.15
2019-02-19T14:29:48.369Z,26.80
2019-02-19T14:32:32.734Z,33.70
2019-02-19T14:35:04.789Z,54.85
2019-02-19T14:37:52.321Z,31.00
2019-02-19T14:40:30.548Z,47.78
2019-02-19T14:43:14.574Z,24.35
2019-02-19T14:46:03.246Z,23.55
2019-02-19T14:48:51.786Z,31.65
2019-02-19T14:51:26.821Z,30.32
2019-02-19T14:54:08.000Z,22.62
2019-02-19T14:56:42.734Z,29.23
2019-02-19T14:59:17.642Z,33.70
2019-02-19T15:01:58.657Z,54.45
2019-02-19T15:04:33.757Z,44.03
2019-02-19T15:07:22.082Z,33.55
2019-02-19T15:09:54.198Z,28.07
2019-02-19T15:12:28.897Z,18.95
2019-02-19T15:15:04.025Z,22.48
2019-02-19T15:17:45.010Z,29.63
2019-02-19T15:20:19.841Z,23.05
2019-02-19T15:23:08.742Z,26.75
2019-02-19T15:25:46.855Z,26.23
2019-02-19T15:28:37.049Z,43.08
2019-02-19T15:31:25.604Z,41.68
2019-02-19T15:33:57.648Z,27.27
2019-02-19T15:36:38.685Z,22.77
2019-02-19T15:39:26.896Z,22.93
2019-02-19T15:42:08.381Z,22.55
2019-02-19T15:44:52.276Z,20.55
2019-02-19T15:47:41.811Z,18.02
2019-02-19T15:50:16.841Z,22.17
2019-02-19T15:52:49.091Z,19.10
2019-02-19T15:55:40.563Z,20.25
2019-02-19T15:58:24.823Z,20.40
2019-02-19T16:01:12.942Z,22.82
2019-02-19T16:03:47.622Z,25.62
2019-02-19T16:06:19.661Z,34.60
2019-02-19T16:08:57.938Z,28.57
2019-02-19T16:11:30.004Z,48.15
2019-02-19T16:14:16.329Z,34.33
2019-02-19T16:16:41.720Z,30.10
2019-02-19T16:19:32.649Z,33.70
2019-02-19T16:22:16.895Z,23.27
2019-02-19T16:24:51.810Z,29.27
2019-02-19T16:27:26.597Z,28.98
2019-02-19T16:30:01.235Z,28.55
2019-02-19T16:32:34.875Z,24.07
2019-02-19T16:35:27.477Z,26.00
2019-02-19T16:38:06.611Z,22.82
2019-02-19T16:40:47.671Z,26.57
2019-02-19T16:43:19.774Z,22.73
2019-02-19T16:45:55.623Z,21.20
2019-02-19T16:48:27.665Z,22.15
2019-02-19T16:50:59.727Z,28.60
2019-02-19T16:53:37.854Z,34.45
2019-02-19T16:56:09.892Z,29.50
2019-02-19T16:58:51.205Z,48.63
2019-02-19T17:01:39.730Z,110.17
2019-02-19T17:04:17.867Z,92.10
2019-02-19T17:06:50.057Z,42.70
2019-02-19T17:09:28.145Z,68.28
2019-02-19T17:12:12.265Z,249.98
2019-02-19T17:14:47.400Z,74.60
2019-02-19T17:17:19.469Z,116.88
2019-02-19T17:19:55.341Z,97.45
2019-02-19T17:22:30.498Z,171.15
2019-02-19T17:25:02.556Z,111.85
2019-02-19T17:27:34.632Z,102.75
2019-02-19T17:30:25.950Z,32.33
2019-02-19T17:32:57.986Z,69.97
2019-02-19T17:35:41.861Z,43.95
2019-02-19T17:38:19.707Z,65.00
2019-02-19T17:41:00.947Z,56.18
2019-02-19T17:43:32.988Z,47.27
2019-02-19T17:46:05.036Z,40.10
2019-02-19T17:48:44.107Z,74.37
2019-02-19T17:51:21.960Z,71.28
2019-02-19T17:53:56.946Z,67.40
2019-02-19T17:56:31.956Z,60.30
2019-02-19T17:59:13.068Z,51.02
2019-02-19T18:02:01.299Z,47.20
2019-02-19T18:04:48.728Z,133.40
2019-02-19T18:07:26.680Z,45.88
2019-02-19T18:10:01.590Z,22.22
2019-02-19T18:12:50.943Z,28.62
2019-02-19T18:15:26.293Z,25.23
2019-02-19T18:17:58.367Z,27.40
2019-02-19T18:20:28.784Z,31.57
2019-02-19T18:22:59.305Z,32.23
2019-02-19T18:25:29.829Z,35.05
2019-02-19T18:28:00.271Z,41.00
2019-02-19T18:30:31.008Z,37.10
2019-02-19T18:33:01.413Z,57.23
2019-02-19T18:35:31.860Z,26.02
2019-02-19T18:38:02.292Z,46.02
2019-02-19T18:40:32.716Z,41.00
2019-02-19T18:43:03.200Z,39.55
2019-02-19T18:45:33.680Z,40.00
2019-02-19T18:48:04.113Z,54.15
2019-02-19T18:50:34.528Z,47.73
2019-02-19T18:53:04.937Z,66.10
2019-02-19T18:55:35.328Z,90.80
2019-02-19T18:58:05.814Z,57.65
2019-02-19T19:00:36.253Z,113.47
2019-02-19T19:03:06.721Z,117.50
2019-02-19T19:05:37.257Z,66.55
2019-02-19T19:08:07.671Z,64.95
2019-02-19T19:10:38.071Z,95.65
2019-02-19T19:13:08.562Z,103.90
2019-02-19T19:15:39.297Z,81.42
2019-02-19T19:18:09.726Z,70.35
2019-02-19T19:20:40.141Z,42.90
2019-02-19T19:23:10.581Z,42.08
2019-02-19T19:25:40.967Z,38.20
2019-02-19T19:28:12.329Z,38.70
2019-02-19T19:30:42.789Z,25.40
2019-02-19T19:33:13.211Z,27.32
2019-02-19T19:35:43.640Z,22.45
2019-02-19T19:38:14.033Z,25.57
2019-02-19T19:40:44.433Z,22.77
2019-02-19T19:43:14.821Z,18.42
2019-02-19T19:45:45.230Z,27.67
2019-02-19T19:48:15.621Z,18.42
2019-02-19T19:50:46.009Z,25.08
2019-02-19T19:53:16.413Z,19.50
